sensor_id;sensor_type;location;lat;lon;timestamp;temperature;humidity
10051;DHT22;5065;46.942;7.432;2023-01-19T00:00:05;1.70;99.90
10051;DHT22;5065;46.942;7.432;2023-01-19T00:02:35;1.70;99.90
10051;DHT22;5065;46.942;7.432;2023-01-19T00:05:02;1.60;99.90
10051;DHT22;5065;46.942;7.432;2023-01-19T00:07:29;1.70;99.90
10051;DHT22;5065;46.942;7.432;2023-01-19T00:09:57;1.70;99.90
10051;DHT22;5065;46.942;7.432;2023-01-19T00:12:28;1.60;99.90
10051;DHT22;5065;46.942;7.432;2023-01-19T00:14:55;1.50;99.90
10051;DHT22;5065;46.942;7.432;2023-01-19T00:17:23;1.50;99.90
10051;DHT22;5065;46.942;7.432;2023-01-19T00:19:50;1.40;99.90
10051;DHT22;5065;46.942;7.432;2023-01-19T00:22:17;1.40;99.90
10051;DHT22;5065;46.942;7.432;2023-01-19T00:24:44;1.40;99.90
10051;DHT22;5065;46.942;7.432;2023-01-19T00:27:11;1.30;99.90
10051;DHT22;5065;46.942;7.432;2023-01-19T00:29:40;1.30;99.90
10051;DHT22;5065;46.942;7.432;2023-01-19T00:32:07;1.30;99.90
10051;DHT22;5065;46.942;7.432;2023-01-19T00:34:34;1.30;99.90
10051;DHT22;5065;46.942;7.432;2023-01-19T00:37:04;1.30;99.90
10051;DHT22;5065;46.942;7.432;2023-01-19T00:39:31;1.30;99.90
10051;DHT22;5065;46.942;7.432;2023-01-19T00:41:59;1.30;99.90
10051;DHT22;5065;46.942;7.432;2023-01-19T00:44:45;1.30;99.90
10051;DHT22;5065;46.942;7.432;2023-01-19T00:47:12;1.30;99.90
10051;DHT22;5065;46.942;7.432;2023-01-19T00:49:39;1.20;99.90
10051;DHT22;5065;46.942;7.432;2023-01-19T00:52:07;1.20;99.90
10051;DHT22;5065;46.942;7.432;2023-01-19T00:54:34;1.10;99.90
10051;DHT22;5065;46.942;7.432;2023-01-19T00:57:01;1.10;99.90
10051;DHT22;5065;46.942;7.432;2023-01-19T00:59:29;1.20;99.90
10051;DHT22;5065;46.942;7.432;2023-01-19T01:01:57;1.20;99.90
10051;DHT22;5065;46.942;7.432;2023-01-19T01:04:24;1.10;99.90
10051;DHT22;5065;46.942;7.432;2023-01-19T01:06:52;1.00;99.90
10051;DHT22;5065;46.942;7.432;2023-01-19T01:09:19;1.00;99.90
10051;DHT22;5065;46.942;7.432;2023-01-19T01:11:48;1.00;99.90
10051;DHT22;5065;46.942;7.432;2023-01-19T01:14:15;1.00;99.90
10051;DHT22;5065;46.942;7.432;2023-01-19T01:16:42;0.90;99.90
10051;DHT22;5065;46.942;7.432;2023-01-19T01:19:11;0.90;99.90
10051;DHT22;5065;46.942;7.432;2023-01-19T01:21:38;0.80;99.90
10051;DHT22;5065;46.942;7.432;2023-01-19T01:24:06;0.70;99.90
10051;DHT22;5065;46.942;7.432;2023-01-19T01:26:34;0.70;99.90
10051;DHT22;5065;46.942;7.432;2023-01-19T01:29:01;0.70;99.90
10051;DHT22;5065;46.942;7.432;2023-01-19T01:31:28;0.60;99.90
10051;DHT22;5065;46.942;7.432;2023-01-19T01:33:55;0.50;99.90
10051;DHT22;5065;46.942;7.432;2023-01-19T01:36:23;0.50;99.90
10051;DHT22;5065;46.942;7.432;2023-01-19T01:38:53;0.40;99.90
10051;DHT22;5065;46.942;7.432;2023-01-19T01:41:20;0.40;99.90
10051;DHT22;5065;46.942;7.432;2023-01-19T01:43:49;0.40;99.90
10051;DHT22;5065;46.942;7.432;2023-01-19T01:46:18;0.40;99.90
10051;DHT22;5065;46.942;7.432;2023-01-19T01:48:48;0.40;99.90
10051;DHT22;5065;46.942;7.432;2023-01-19T01:51:23;0.40;99.90
10051;DHT22;5065;46.942;7.432;2023-01-19T01:54:08;0.30;99.90
10051;DHT22;5065;46.942;7.432;2023-01-19T01:56:39;0.30;99.90
10051;DHT22;5065;46.942;7.432;2023-01-19T01:59:10;0.40;99.90
10051;DHT22;5065;46.942;7.432;2023-01-19T02:01:38;0.40;99.90
10051;DHT22;5065;46.942;7.432;2023-01-19T02:04:23;0.40;99.90
10051;DHT22;5065;46.942;7.432;2023-01-19T02:06:52;0.40;99.90
10051;DHT22;5065;46.942;7.432;2023-01-19T02:09:36;0.40;99.90
10051;DHT22;5065;46.942;7.432;2023-01-19T02:12:22;0.40;99.90
10051;DHT22;5065;46.942;7.432;2023-01-19T02:15:14;0.40;99.90
10051;DHT22;5065;46.942;7.432;2023-01-19T02:17:42;0.50;99.90
10051;DHT22;5065;46.942;7.432;2023-01-19T02:20:10;0.50;99.90
10051;DHT22;5065;46.942;7.432;2023-01-19T02:22:45;0.50;99.90
10051;DHT22;5065;46.942;7.432;2023-01-19T02:25:15;0.50;99.90
10051;DHT22;5065;46.942;7.432;2023-01-19T02:27:44;0.50;99.90
10051;DHT22;5065;46.942;7.432;2023-01-19T02:30:12;0.60;99.90
10051;DHT22;5065;46.942;7.432;2023-01-19T02:32:41;0.60;99.90
10051;DHT22;5065;46.942;7.432;2023-01-19T02:35:09;0.60;99.90
10051;DHT22;5065;46.942;7.432;2023-01-19T02:37:37;0.50;99.90
10051;DHT22;5065;46.942;7.432;2023-01-19T02:40:09;0.50;99.90
10051;DHT22;5065;46.942;7.432;2023-01-19T02:42:41;0.50;99.90
10051;DHT22;5065;46.942;7.432;2023-01-19T02:45:11;0.40;99.90
10051;DHT22;5065;46.942;7.432;2023-01-19T02:47:42;0.40;99.90
10051;DHT22;5065;46.942;7.432;2023-01-19T02:50:34;0.30;99.90
10051;DHT22;5065;46.942;7.432;2023-01-19T02:53:20;0.30;99.90
10051;DHT22;5065;46.942;7.432;2023-01-19T02:55:55;0.30;99.90
10051;DHT22;5065;46.942;7.432;2023-01-19T02:58:32;0.40;99.90
10051;DHT22;5065;46.942;7.432;2023-01-19T03:01:11;0.30;99.90
10051;DHT22;5065;46.942;7.432;2023-01-19T03:03:49;0.30;99.90
10051;DHT22;5065;46.942;7.432;2023-01-19T03:06:29;0.20;99.90
10051;DHT22;5065;46.942;7.432;2023-01-19T03:09:03;0.10;99.90
10051;DHT22;5065;46.942;7.432;2023-01-19T03:11:38;0.10;99.90
10051;DHT22;5065;46.942;7.432;2023-01-19T03:14:09;0.00;99.90
10051;DHT22;5065;46.942;7.432;2023-01-19T03:16:41;-0.10;99.90
10051;DHT22;5065;46.942;7.432;2023-01-19T03:19:11;-0.10;99.90
10051;DHT22;5065;46.942;7.432;2023-01-19T03:21:44;-0.20;99.90
10051;DHT22;5065;46.942;7.432;2023-01-19T03:24:14;-0.30;99.90
10051;DHT22;5065;46.942;7.432;2023-01-19T03:26:45;-0.30;99.90
10051;DHT22;5065;46.942;7.432;2023-01-19T03:29:18;-0.20;99.90
10051;DHT22;5065;46.942;7.432;2023-01-19T03:31:48;-0.20;99.90
10051;DHT22;5065;46.942;7.432;2023-01-19T03:34:17;-0.20;99.90
10051;DHT22;5065;46.942;7.432;2023-01-19T03:36:50;-0.30;99.90
10051;DHT22;5065;46.942;7.432;2023-01-19T03:39:21;-0.50;99.90
10051;DHT22;5065;46.942;7.432;2023-01-19T03:41:52;-0.50;99.90
10051;DHT22;5065;46.942;7.432;2023-01-19T03:44:22;-0.50;99.90
10051;DHT22;5065;46.942;7.432;2023-01-19T03:46:51;-0.50;99.90
10051;DHT22;5065;46.942;7.432;2023-01-19T03:49:18;-0.60;99.90
10051;DHT22;5065;46.942;7.432;2023-01-19T03:51:45;-0.60;99.90
10051;DHT22;5065;46.942;7.432;2023-01-19T03:54:12;-0.70;99.90
10051;DHT22;5065;46.942;7.432;2023-01-19T03:56:40;-0.70;99.90
10051;DHT22;5065;46.942;7.432;2023-01-19T03:59:08;-0.70;99.90
10051;DHT22;5065;46.942;7.432;2023-01-19T04:01:36;-0.70;99.90
10051;DHT22;5065;46.942;7.432;2023-01-19T04:04:04;-0.80;99.90
10051;DHT22;5065;46.942;7.432;2023-01-19T04:06:31;-0.80;99.90
10051;DHT22;5065;46.942;7.432;2023-01-19T04:08:58;-0.80;99.90
10051;DHT22;5065;46.942;7.432;2023-01-19T04:11:25;-0.80;99.90
10051;DHT22;5065;46.942;7.432;2023-01-19T04:13:52;-0.80;99.90
10051;DHT22;5065;46.942;7.432;2023-01-19T04:16:19;-0.80;99.90
10051;DHT22;5065;46.942;7.432;2023-01-19T04:18:48;-0.80;99.90
10051;DHT22;5065;46.942;7.432;2023-01-19T04:21:17;-0.80;99.90
10051;DHT22;5065;46.942;7.432;2023-01-19T04:23:45;-0.90;99.90
10051;DHT22;5065;46.942;7.432;2023-01-19T04:26:14;-0.80;99.90
10051;DHT22;5065;46.942;7.432;2023-01-19T04:28:41;-0.90;99.90
10051;DHT22;5065;46.942;7.432;2023-01-19T04:31:09;-0.90;99.90
10051;DHT22;5065;46.942;7.432;2023-01-19T04:33:36;-0.90;99.90
10051;DHT22;5065;46.942;7.432;2023-01-19T04:36:05;-0.90;99.90
10051;DHT22;5065;46.942;7.432;2023-01-19T04:38:33;-0.90;99.90
10051;DHT22;5065;46.942;7.432;2023-01-19T04:41:00;-0.90;99.90
10051;DHT22;5065;46.942;7.432;2023-01-19T04:43:27;-1.00;99.90
10051;DHT22;5065;46.942;7.432;2023-01-19T04:45:54;-1.10;99.90
10051;DHT22;5065;46.942;7.432;2023-01-19T04:48:22;-1.20;99.90
10051;DHT22;5065;46.942;7.432;2023-01-19T04:50:50;-1.20;99.90
10051;DHT22;5065;46.942;7.432;2023-01-19T04:53:19;-1.20;99.90
10051;DHT22;5065;46.942;7.432;2023-01-19T04:55:46;-1.30;99.90
10051;DHT22;5065;46.942;7.432;2023-01-19T04:58:13;-1.20;99.90
10051;DHT22;5065;46.942;7.432;2023-01-19T05:00:40;-1.20;99.90
10051;DHT22;5065;46.942;7.432;2023-01-19T05:03:07;-1.40;99.90
10051;DHT22;5065;46.942;7.432;2023-01-19T05:05:34;-1.50;99.90
10051;DHT22;5065;46.942;7.432;2023-01-19T05:08:02;-1.60;99.90
10051;DHT22;5065;46.942;7.432;2023-01-19T05:10:30;-1.50;99.90
10051;DHT22;5065;46.942;7.432;2023-01-19T05:12:57;-1.60;99.90
10051;DHT22;5065;46.942;7.432;2023-01-19T05:15:24;-1.70;99.90
10051;DHT22;5065;46.942;7.432;2023-01-19T05:17:52;-1.80;99.90
10051;DHT22;5065;46.942;7.432;2023-01-19T05:20:19;-1.90;99.90
10051;DHT22;5065;46.942;7.432;2023-01-19T05:22:48;-2.00;99.90
10051;DHT22;5065;46.942;7.432;2023-01-19T05:25:16;-2.10;99.90
10051;DHT22;5065;46.942;7.432;2023-01-19T05:27:45;-2.10;99.90
10051;DHT22;5065;46.942;7.432;2023-01-19T05:30:12;-2.00;99.90
10051;DHT22;5065;46.942;7.432;2023-01-19T05:32:40;-2.00;99.90
10051;DHT22;5065;46.942;7.432;2023-01-19T05:35:08;-2.10;99.90
10051;DHT22;5065;46.942;7.432;2023-01-19T05:37:35;-2.10;99.90
10051;DHT22;5065;46.942;7.432;2023-01-19T05:40:03;-2.10;99.90
10051;DHT22;5065;46.942;7.432;2023-01-19T05:42:30;-2.10;99.90
10051;DHT22;5065;46.942;7.432;2023-01-19T05:44:58;-2.20;99.90
10051;DHT22;5065;46.942;7.432;2023-01-19T05:47:27;-2.30;99.90
10051;DHT22;5065;46.942;7.432;2023-01-19T05:49:55;-2.30;99.90
10051;DHT22;5065;46.942;7.432;2023-01-19T05:52:22;-2.40;99.90
10051;DHT22;5065;46.942;7.432;2023-01-19T05:54:49;-2.50;99.90
10051;DHT22;5065;46.942;7.432;2023-01-19T05:57:17;-2.50;99.90
10051;DHT22;5065;46.942;7.432;2023-01-19T05:59:44;-2.90;99.90
10051;DHT22;5065;46.942;7.432;2023-01-19T06:02:12;-3.10;99.90
10051;DHT22;5065;46.942;7.432;2023-01-19T06:04:39;-3.00;99.90
10051;DHT22;5065;46.942;7.432;2023-01-19T06:07:07;-2.90;99.90
10051;DHT22;5065;46.942;7.432;2023-01-19T06:09:34;-2.70;99.90
10051;DHT22;5065;46.942;7.432;2023-01-19T06:12:01;-2.50;99.90
10051;DHT22;5065;46.942;7.432;2023-01-19T06:14:28;-2.50;99.90
10051;DHT22;5065;46.942;7.432;2023-01-19T06:16:57;-2.50;99.90
10051;DHT22;5065;46.942;7.432;2023-01-19T06:19:26;-2.40;99.90
10051;DHT22;5065;46.942;7.432;2023-01-19T06:21:53;-2.30;99.90
10051;DHT22;5065;46.942;7.432;2023-01-19T06:24:20;-2.40;99.90
10051;DHT22;5065;46.942;7.432;2023-01-19T06:26:53;-2.30;99.90
10051;DHT22;5065;46.942;7.432;2023-01-19T06:29:21;-2.30;99.90
10051;DHT22;5065;46.942;7.432;2023-01-19T06:31:48;-2.30;99.90
10051;DHT22;5065;46.942;7.432;2023-01-19T06:34:15;-2.20;99.90
10051;DHT22;5065;46.942;7.432;2023-01-19T06:36:45;-2.20;99.90
10051;DHT22;5065;46.942;7.432;2023-01-19T06:39:12;-2.20;99.90
10051;DHT22;5065;46.942;7.432;2023-01-19T06:41:39;-2.20;99.90
10051;DHT22;5065;46.942;7.432;2023-01-19T06:44:06;-2.30;99.90
10051;DHT22;5065;46.942;7.432;2023-01-19T06:46:34;-2.30;99.90
10051;DHT22;5065;46.942;7.432;2023-01-19T06:49:01;-2.30;99.90
10051;DHT22;5065;46.942;7.432;2023-01-19T06:51:28;-2.30;99.90
10051;DHT22;5065;46.942;7.432;2023-01-19T06:53:57;-2.30;99.90
10051;DHT22;5065;46.942;7.432;2023-01-19T06:56:24;-2.40;99.90
10051;DHT22;5065;46.942;7.432;2023-01-19T06:58:51;-2.50;99.90
10051;DHT22;5065;46.942;7.432;2023-01-19T07:01:19;-2.50;99.90
10051;DHT22;5065;46.942;7.432;2023-01-19T07:03:47;-2.40;99.90
10051;DHT22;5065;46.942;7.432;2023-01-19T07:06:14;-2.30;99.90
10051;DHT22;5065;46.942;7.432;2023-01-19T07:08:41;-2.30;99.90
10051;DHT22;5065;46.942;7.432;2023-01-19T07:11:10;-2.40;99.90
10051;DHT22;5065;46.942;7.432;2023-01-19T07:13:39;-2.40;99.90
10051;DHT22;5065;46.942;7.432;2023-01-19T07:16:09;-2.40;99.90
10051;DHT22;5065;46.942;7.432;2023-01-19T07:18:38;-2.30;99.90
10051;DHT22;5065;46.942;7.432;2023-01-19T07:21:06;-2.30;99.90
10051;DHT22;5065;46.942;7.432;2023-01-19T07:23:34;-2.30;99.90
10051;DHT22;5065;46.942;7.432;2023-01-19T07:26:02;-2.40;99.90
10051;DHT22;5065;46.942;7.432;2023-01-19T07:28:31;-2.50;99.90
10051;DHT22;5065;46.942;7.432;2023-01-19T07:30:58;-2.50;99.90
10051;DHT22;5065;46.942;7.432;2023-01-19T07:33:25;-2.50;99.90
10051;DHT22;5065;46.942;7.432;2023-01-19T07:35:53;-2.50;99.90
10051;DHT22;5065;46.942;7.432;2023-01-19T07:38:20;-2.50;99.90
10051;DHT22;5065;46.942;7.432;2023-01-19T07:40:48;-2.50;99.90
10051;DHT22;5065;46.942;7.432;2023-01-19T07:43:15;-2.40;99.90
10051;DHT22;5065;46.942;7.432;2023-01-19T07:45:44;-2.40;99.90
10051;DHT22;5065;46.942;7.432;2023-01-19T07:48:11;-2.30;99.90
10051;DHT22;5065;46.942;7.432;2023-01-19T07:50:38;-2.20;99.90
10051;DHT22;5065;46.942;7.432;2023-01-19T07:53:05;-2.10;99.90
10051;DHT22;5065;46.942;7.432;2023-01-19T07:55:33;-2.00;99.90
10051;DHT22;5065;46.942;7.432;2023-01-19T07:58:00;-1.90;99.90
10051;DHT22;5065;46.942;7.432;2023-01-19T08:00:31;-1.80;99.90
10051;DHT22;5065;46.942;7.432;2023-01-19T08:03:00;-1.60;99.90
10051;DHT22;5065;46.942;7.432;2023-01-19T08:05:28;-1.40;99.90
10051;DHT22;5065;46.942;7.432;2023-01-19T08:07:55;-1.20;99.90
10051;DHT22;5065;46.942;7.432;2023-01-19T08:10:24;-1.00;99.90
10051;DHT22;5065;46.942;7.432;2023-01-19T08:12:52;-0.80;99.90
10051;DHT22;5065;46.942;7.432;2023-01-19T08:15:19;-0.70;99.90
10051;DHT22;5065;46.942;7.432;2023-01-19T08:17:54;-0.70;99.90
10051;DHT22;5065;46.942;7.432;2023-01-19T08:20:23;-0.70;99.90
10051;DHT22;5065;46.942;7.432;2023-01-19T08:22:52;-0.50;99.90
10051;DHT22;5065;46.942;7.432;2023-01-19T08:25:25;-0.40;99.90
10051;DHT22;5065;46.942;7.432;2023-01-19T08:27:54;-0.30;99.90
10051;DHT22;5065;46.942;7.432;2023-01-19T08:30:21;-0.10;99.90
10051;DHT22;5065;46.942;7.432;2023-01-19T08:32:51;0.00;99.90
10051;DHT22;5065;46.942;7.432;2023-01-19T08:35:19;0.10;99.90
10051;DHT22;5065;46.942;7.432;2023-01-19T08:37:48;0.20;99.90
10051;DHT22;5065;46.942;7.432;2023-01-19T08:40:16;0.30;99.90
10051;DHT22;5065;46.942;7.432;2023-01-19T08:42:44;0.40;99.90
10051;DHT22;5065;46.942;7.432;2023-01-19T08:45:11;0.50;99.90
10051;DHT22;5065;46.942;7.432;2023-01-19T08:47:38;0.60;99.90
10051;DHT22;5065;46.942;7.432;2023-01-19T08:50:06;0.70;99.90
10051;DHT22;5065;46.942;7.432;2023-01-19T08:52:35;0.80;99.90
10051;DHT22;5065;46.942;7.432;2023-01-19T08:55:05;1.00;99.90
10051;DHT22;5065;46.942;7.432;2023-01-19T08:57:32;1.00;99.90
10051;DHT22;5065;46.942;7.432;2023-01-19T08:59:59;1.10;99.90
10051;DHT22;5065;46.942;7.432;2023-01-19T09:02:26;1.10;99.90
10051;DHT22;5065;46.942;7.432;2023-01-19T09:04:54;1.20;99.90
10051;DHT22;5065;46.942;7.432;2023-01-19T09:07:21;1.20;99.90
10051;DHT22;5065;46.942;7.432;2023-01-19T09:09:48;1.30;99.90
10051;DHT22;5065;46.942;7.432;2023-01-19T09:12:17;1.40;99.90
10051;DHT22;5065;46.942;7.432;2023-01-19T09:14:44;1.40;99.90
10051;DHT22;5065;46.942;7.432;2023-01-19T09:17:11;1.40;99.90
10051;DHT22;5065;46.942;7.432;2023-01-19T09:19:39;1.50;99.90
10051;DHT22;5065;46.942;7.432;2023-01-19T09:22:07;1.50;99.90
10051;DHT22;5065;46.942;7.432;2023-01-19T09:24:34;1.60;99.90
10051;DHT22;5065;46.942;7.432;2023-01-19T09:27:01;1.60;99.90
10051;DHT22;5065;46.942;7.432;2023-01-19T09:29:30;1.60;99.90
10051;DHT22;5065;46.942;7.432;2023-01-19T09:31:57;1.70;99.90
10051;DHT22;5065;46.942;7.432;2023-01-19T09:34:24;1.70;99.90
10051;DHT22;5065;46.942;7.432;2023-01-19T09:36:51;1.80;99.90
10051;DHT22;5065;46.942;7.432;2023-01-19T09:39:18;1.90;99.90
10051;DHT22;5065;46.942;7.432;2023-01-19T09:41:50;2.00;99.90
10051;DHT22;5065;46.942;7.432;2023-01-19T09:44:27;2.00;99.90
10051;DHT22;5065;46.942;7.432;2023-01-19T09:46:56;2.10;99.90
10051;DHT22;5065;46.942;7.432;2023-01-19T09:49:29;2.20;99.90
10051;DHT22;5065;46.942;7.432;2023-01-19T09:51:57;2.30;99.90
10051;DHT22;5065;46.942;7.432;2023-01-19T09:54:30;2.40;99.90
10051;DHT22;5065;46.942;7.432;2023-01-19T09:57:02;2.40;99.90
10051;DHT22;5065;46.942;7.432;2023-01-19T09:59:32;2.50;99.90
10051;DHT22;5065;46.942;7.432;2023-01-19T10:02:12;2.50;99.90
10051;DHT22;5065;46.942;7.432;2023-01-19T10:04:42;2.60;99.90
10051;DHT22;5065;46.942;7.432;2023-01-19T10:07:19;2.60;99.90
10051;DHT22;5065;46.942;7.432;2023-01-19T10:10:08;2.70;99.90
10051;DHT22;5065;46.942;7.432;2023-01-19T10:13:00;2.60;99.90
10051;DHT22;5065;46.942;7.432;2023-01-19T10:15:41;2.60;99.90
10051;DHT22;5065;46.942;7.432;2023-01-19T10:18:17;2.70;99.90
10051;DHT22;5065;46.942;7.432;2023-01-19T10:20:48;2.70;99.90
10051;DHT22;5065;46.942;7.432;2023-01-19T10:23:28;2.80;99.90
10051;DHT22;5065;46.942;7.432;2023-01-19T10:26:00;2.80;99.90
10051;DHT22;5065;46.942;7.432;2023-01-19T10:28:29;2.90;99.90
10051;DHT22;5065;46.942;7.432;2023-01-19T10:30:56;3.00;99.90
10051;DHT22;5065;46.942;7.432;2023-01-19T10:33:25;3.00;99.90
10051;DHT22;5065;46.942;7.432;2023-01-19T10:35:52;3.10;99.90
10051;DHT22;5065;46.942;7.432;2023-01-19T10:38:19;3.20;99.90
10051;DHT22;5065;46.942;7.432;2023-01-19T10:40:51;3.10;99.90
10051;DHT22;5065;46.942;7.432;2023-01-19T10:43:42;3.20;99.90
10051;DHT22;5065;46.942;7.432;2023-01-19T10:46:35;3.20;99.90
10051;DHT22;5065;46.942;7.432;2023-01-19T10:49:05;3.30;99.90
10051;DHT22;5065;46.942;7.432;2023-01-19T10:51:33;3.20;99.90
10051;DHT22;5065;46.942;7.432;2023-01-19T10:54:12;3.20;99.90
10051;DHT22;5065;46.942;7.432;2023-01-19T10:56:39;3.20;99.90
10051;DHT22;5065;46.942;7.432;2023-01-19T10:59:31;3.20;99.90
10051;DHT22;5065;46.942;7.432;2023-01-19T11:02:03;3.30;99.90
10051;DHT22;5065;46.942;7.432;2023-01-19T11:04:39;3.20;99.90
10051;DHT22;5065;46.942;7.432;2023-01-19T11:07:15;3.20;99.90
10051;DHT22;5065;46.942;7.432;2023-01-19T11:09:42;3.30;99.90
10051;DHT22;5065;46.942;7.432;2023-01-19T11:12:19;3.30;99.90
10051;DHT22;5065;46.942;7.432;2023-01-19T11:14:49;3.40;99.90
10051;DHT22;5065;46.942;7.432;2023-01-19T11:17:19;3.30;99.90
10051;DHT22;5065;46.942;7.432;2023-01-19T11:19:59;3.40;99.90
10051;DHT22;5065;46.942;7.432;2023-01-19T11:22:29;3.40;99.90
10051;DHT22;5065;46.942;7.432;2023-01-19T11:25:02;3.40;99.90
10051;DHT22;5065;46.942;7.432;2023-01-19T11:27:32;3.40;99.90
10051;DHT22;5065;46.942;7.432;2023-01-19T11:30:04;3.30;99.90
10051;DHT22;5065;46.942;7.432;2023-01-19T11:32:35;3.20;99.90
10051;DHT22;5065;46.942;7.432;2023-01-19T11:35:35;3.20;99.90
10051;DHT22;5065;46.942;7.432;2023-01-19T11:38:17;3.20;99.90
10051;DHT22;5065;46.942;7.432;2023-01-19T11:40:51;3.20;99.90
10051;DHT22;5065;46.942;7.432;2023-01-19T11:43:20;3.20;99.90
10051;DHT22;5065;46.942;7.432;2023-01-19T11:45:48;3.20;99.90
10051;DHT22;5065;46.942;7.432;2023-01-19T11:48:22;3.20;99.90
10051;DHT22;5065;46.942;7.432;2023-01-19T11:50:53;3.10;99.90
10051;DHT22;5065;46.942;7.432;2023-01-19T11:53:22;3.20;99.90
10051;DHT22;5065;46.942;7.432;2023-01-19T11:55:54;3.10;99.90
10051;DHT22;5065;46.942;7.432;2023-01-19T11:58:23;3.00;99.90
10051;DHT22;5065;46.942;7.432;2023-01-19T12:00:55;3.10;99.90
10051;DHT22;5065;46.942;7.432;2023-01-19T12:03:26;3.10;99.90
10051;DHT22;5065;46.942;7.432;2023-01-19T12:05:59;3.00;99.90
10051;DHT22;5065;46.942;7.432;2023-01-19T12:08:32;3.00;99.90
10051;DHT22;5065;46.942;7.432;2023-01-19T12:11:01;2.90;99.90
10051;DHT22;5065;46.942;7.432;2023-01-19T12:13:31;2.90;99.90
10051;DHT22;5065;46.942;7.432;2023-01-19T12:16:02;2.90;99.90
10051;DHT22;5065;46.942;7.432;2023-01-19T12:18:35;2.90;99.90
10051;DHT22;5065;46.942;7.432;2023-01-19T12:21:04;2.80;99.90
10051;DHT22;5065;46.942;7.432;2023-01-19T12:23:42;2.80;99.90
10051;DHT22;5065;46.942;7.432;2023-01-19T12:26:24;2.70;99.90
10051;DHT22;5065;46.942;7.432;2023-01-19T12:28:54;2.70;99.90
10051;DHT22;5065;46.942;7.432;2023-01-19T12:31:23;2.60;99.90
10051;DHT22;5065;46.942;7.432;2023-01-19T12:33:50;2.70;99.90
10051;DHT22;5065;46.942;7.432;2023-01-19T12:36:46;2.70;99.90
10051;DHT22;5065;46.942;7.432;2023-01-19T12:39:16;2.70;99.90
10051;DHT22;5065;46.942;7.432;2023-01-19T12:41:45;2.70;99.90
10051;DHT22;5065;46.942;7.432;2023-01-19T12:44:20;2.70;99.90
10051;DHT22;5065;46.942;7.432;2023-01-19T12:46:51;2.70;99.90
10051;DHT22;5065;46.942;7.432;2023-01-19T12:49:26;2.70;99.90
10051;DHT22;5065;46.942;7.432;2023-01-19T12:52:12;2.70;99.90
10051;DHT22;5065;46.942;7.432;2023-01-19T12:54:42;2.70;99.90
10051;DHT22;5065;46.942;7.432;2023-01-19T12:57:20;2.70;99.90
10051;DHT22;5065;46.942;7.432;2023-01-19T12:59:55;2.70;99.90
10051;DHT22;5065;46.942;7.432;2023-01-19T13:02:41;2.60;99.90
10051;DHT22;5065;46.942;7.432;2023-01-19T13:05:18;2.70;99.90
10051;DHT22;5065;46.942;7.432;2023-01-19T13:17:22;2.80;99.90
10051;DHT22;5065;46.942;7.432;2023-01-19T13:20:21;2.80;99.90
10051;DHT22;5065;46.942;7.432;2023-01-19T13:25:57;2.90;99.90
10051;DHT22;5065;46.942;7.432;2023-01-19T13:28:32;2.80;99.90
10051;DHT22;5065;46.942;7.432;2023-01-19T13:31:01;2.80;99.90
10051;DHT22;5065;46.942;7.432;2023-01-19T13:33:37;2.70;99.90
10051;DHT22;5065;46.942;7.432;2023-01-19T13:36:22;2.60;99.90
10051;DHT22;5065;46.942;7.432;2023-01-19T13:38:51;2.70;99.90
10051;DHT22;5065;46.942;7.432;2023-01-19T13:41:21;2.70;99.90
10051;DHT22;5065;46.942;7.432;2023-01-19T13:43:55;2.70;99.90
10051;DHT22;5065;46.942;7.432;2023-01-19T13:46:25;2.60;99.90
10051;DHT22;5065;46.942;7.432;2023-01-19T13:48:56;2.60;99.90
10051;DHT22;5065;46.942;7.432;2023-01-19T13:51:25;2.60;99.90
10051;DHT22;5065;46.942;7.432;2023-01-19T13:53:53;2.60;99.90
10051;DHT22;5065;46.942;7.432;2023-01-19T13:56:22;2.60;99.90
10051;DHT22;5065;46.942;7.432;2023-01-19T13:59:09;2.60;99.90
10051;DHT22;5065;46.942;7.432;2023-01-19T14:01:38;2.70;99.90
10051;DHT22;5065;46.942;7.432;2023-01-19T14:04:26;2.70;99.90
10051;DHT22;5065;46.942;7.432;2023-01-19T14:06:56;2.70;99.90
10051;DHT22;5065;46.942;7.432;2023-01-19T14:09:24;2.60;99.90
10051;DHT22;5065;46.942;7.432;2023-01-19T14:12:08;2.60;99.90
10051;DHT22;5065;46.942;7.432;2023-01-19T14:14:36;2.60;99.90
10051;DHT22;5065;46.942;7.432;2023-01-19T14:17:13;2.60;99.90
10051;DHT22;5065;46.942;7.432;2023-01-19T14:19:49;2.60;99.90
10051;DHT22;5065;46.942;7.432;2023-01-19T14:22:16;2.50;99.90
10051;DHT22;5065;46.942;7.432;2023-01-19T14:24:43;2.60;99.90
10051;DHT22;5065;46.942;7.432;2023-01-19T14:27:19;2.60;99.90
10051;DHT22;5065;46.942;7.432;2023-01-19T14:29:48;2.50;99.90
10051;DHT22;5065;46.942;7.432;2023-01-19T14:32:20;2.50;99.90
10051;DHT22;5065;46.942;7.432;2023-01-19T14:34:49;2.40;99.90
10051;DHT22;5065;46.942;7.432;2023-01-19T14:37:20;2.50;99.90
10051;DHT22;5065;46.942;7.432;2023-01-19T14:39:49;2.50;99.90
10051;DHT22;5065;46.942;7.432;2023-01-19T14:42:20;2.50;99.90
10051;DHT22;5065;46.942;7.432;2023-01-19T14:44:50;2.50;99.90
10051;DHT22;5065;46.942;7.432;2023-01-19T14:47:26;2.50;99.90
10051;DHT22;5065;46.942;7.432;2023-01-19T14:49:58;2.50;99.90
10051;DHT22;5065;46.942;7.432;2023-01-19T14:52:29;2.40;99.90
10051;DHT22;5065;46.942;7.432;2023-01-19T14:54:57;2.30;99.90
10051;DHT22;5065;46.942;7.432;2023-01-19T14:57:25;2.40;99.90
10051;DHT22;5065;46.942;7.432;2023-01-19T14:59:52;2.40;99.90
10051;DHT22;5065;46.942;7.432;2023-01-19T15:02:20;2.30;99.90
10051;DHT22;5065;46.942;7.432;2023-01-19T15:04:47;2.30;99.90
10051;DHT22;5065;46.942;7.432;2023-01-19T15:07:22;2.30;99.90
10051;DHT22;5065;46.942;7.432;2023-01-19T15:09:49;2.30;99.90
10051;DHT22;5065;46.942;7.432;2023-01-19T15:12:17;2.30;99.90
10051;DHT22;5065;46.942;7.432;2023-01-19T15:14:45;2.20;99.90
10051;DHT22;5065;46.942;7.432;2023-01-19T15:17:18;2.30;99.90
10051;DHT22;5065;46.942;7.432;2023-01-19T15:19:53;2.20;99.90
10051;DHT22;5065;46.942;7.432;2023-01-19T15:22:24;2.20;99.90
10051;DHT22;5065;46.942;7.432;2023-01-19T15:24:53;2.30;99.90
10051;DHT22;5065;46.942;7.432;2023-01-19T15:27:22;2.30;99.90
10051;DHT22;5065;46.942;7.432;2023-01-19T15:29:49;2.20;99.90
10051;DHT22;5065;46.942;7.432;2023-01-19T15:32:16;2.20;99.90
10051;DHT22;5065;46.942;7.432;2023-01-19T15:34:43;2.20;99.90
10051;DHT22;5065;46.942;7.432;2023-01-19T15:37:10;2.20;99.90
10051;DHT22;5065;46.942;7.432;2023-01-19T15:39:39;2.10;99.90
10051;DHT22;5065;46.942;7.432;2023-01-19T15:42:14;2.10;99.90
10051;DHT22;5065;46.942;7.432;2023-01-19T15:44:41;2.10;99.90
10051;DHT22;5065;46.942;7.432;2023-01-19T15:47:09;2.10;99.90
10051;DHT22;5065;46.942;7.432;2023-01-19T15:49:36;2.00;99.90
10051;DHT22;5065;46.942;7.432;2023-01-19T15:52:04;2.00;99.90
10051;DHT22;5065;46.942;7.432;2023-01-19T15:54:31;2.00;99.90
10051;DHT22;5065;46.942;7.432;2023-01-19T15:57:00;2.00;99.90
10051;DHT22;5065;46.942;7.432;2023-01-19T15:59:27;2.00;99.90
10051;DHT22;5065;46.942;7.432;2023-01-19T16:01:54;1.90;99.90
10051;DHT22;5065;46.942;7.432;2023-01-19T16:04:22;1.90;99.90
10051;DHT22;5065;46.942;7.432;2023-01-19T16:06:49;1.90;99.90
10051;DHT22;5065;46.942;7.432;2023-01-19T16:09:16;1.80;99.90
10051;DHT22;5065;46.942;7.432;2023-01-19T16:11:45;1.80;99.90
10051;DHT22;5065;46.942;7.432;2023-01-19T16:14:13;1.80;99.90
10051;DHT22;5065;46.942;7.432;2023-01-19T16:16:40;1.80;99.90
10051;DHT22;5065;46.942;7.432;2023-01-19T16:19:09;1.80;99.90
10051;DHT22;5065;46.942;7.432;2023-01-19T16:21:39;1.70;99.90
10051;DHT22;5065;46.942;7.432;2023-01-19T16:24:07;1.70;99.90
10051;DHT22;5065;46.942;7.432;2023-01-19T16:26:36;1.70;99.90
10051;DHT22;5065;46.942;7.432;2023-01-19T16:29:05;1.60;99.90